createdAt,value
2022-10-17T00:03:54.305Z,10.43
2022-10-17T00:08:55.970Z,9.80
2022-10-17T00:13:57.621Z,11.30
2022-10-17T00:18:59.915Z,5.85
2022-10-17T00:24:01.899Z,10.02
2022-10-17T00:29:03.732Z,7.43
2022-10-17T00:34:05.488Z,7.43
2022-10-17T00:39:07.148Z,10.48
2022-10-17T00:44:30.568Z,5.85
2022-10-17T00:49:36.514Z,10.52
2022-10-17T00:54:43.635Z,7.68
2022-10-17T00:59:50.121Z,8.68
2022-10-17T01:04:55.671Z,4.95
2022-10-17T01:09:57.383Z,10.90
2022-10-17T01:15:09.895Z,6.13
2022-10-17T01:20:15.609Z,8.07
2022-10-17T01:25:36.147Z,7.68
2022-10-17T01:30:53.016Z,6.03
2022-10-17T01:36:04.747Z,5.40
2022-10-17T01:41:16.261Z,8.25
2022-10-17T01:46:28.232Z,12.18
2022-10-17T01:51:45.001Z,7.68
2022-10-17T01:56:51.250Z,4.97
2022-10-17T02:01:55.958Z,7.15
2022-10-17T02:06:57.809Z,5.30
2022-10-17T02:12:36.588Z,3.97
2022-10-17T02:18:01.709Z,10.40
2022-10-17T02:23:26.404Z,5.72
2022-10-17T02:28:28.084Z,8.52
2022-10-17T02:33:35.537Z,8.48
2022-10-17T02:38:40.170Z,8.13
2022-10-17T02:43:45.357Z,4.70
2022-10-17T02:49:28.279Z,5.97
2022-10-17T02:54:52.174Z,4.53
2022-10-17T02:59:57.502Z,5.55
2022-10-17T03:04:59.310Z,4.28
2022-10-17T03:10:01.142Z,6.72
2022-10-17T03:15:04.944Z,5.47
2022-10-17T03:20:07.494Z,5.43
2022-10-17T03:25:09.303Z,10.43
2022-10-17T03:30:11.808Z,4.75
2022-10-17T03:35:15.049Z,4.43
2022-10-17T03:40:20.387Z,5.53
2022-10-17T03:45:22.707Z,5.63
2022-10-17T03:50:24.874Z,5.80
2022-10-17T03:55:27.080Z,4.80
2022-10-17T04:00:28.914Z,7.43
2022-10-17T04:05:33.008Z,6.78
2022-10-17T04:10:34.836Z,6.13
2022-10-17T04:15:37.021Z,12.95
2022-10-17T04:20:39.773Z,9.38
2022-10-17T04:25:42.147Z,6.85
2022-10-17T04:30:45.560Z,5.65
2022-10-17T04:36:02.282Z,8.25
2022-10-17T04:41:08.808Z,5.80
2022-10-17T04:46:13.004Z,7.50
2022-10-17T04:51:20.606Z,4.93
2022-10-17T04:56:43.674Z,6.00
2022-10-17T05:01:45.517Z,7.53
2022-10-17T05:06:48.248Z,4.80
2022-10-17T05:12:10.312Z,8.35
2022-10-17T05:17:16.051Z,10.55
2022-10-17T05:22:17.863Z,6.22
2022-10-17T05:27:19.793Z,9.20
2022-10-17T05:32:21.622Z,10.48
2022-10-17T05:37:23.444Z,5.45
2022-10-17T05:42:28.201Z,13.10
2022-10-17T05:47:32.005Z,14.77
2022-10-17T05:52:34.274Z,5.32
2022-10-17T05:57:44.681Z,6.07
2022-10-17T06:02:50.992Z,6.45
2022-10-17T06:07:57.041Z,11.30
2022-10-17T06:13:02.092Z,8.45
2022-10-17T06:18:04.062Z,8.07
2022-10-17T06:23:06.448Z,7.20
2022-10-17T06:28:31.539Z,12.35
2022-10-17T06:33:33.393Z,7.70
2022-10-17T06:38:35.700Z,13.73
2022-10-17T06:43:48.612Z,13.27
2022-10-17T06:49:10.376Z,8.77
2022-10-17T06:54:18.486Z,20.08
2022-10-17T06:59:36.645Z,13.68
2022-10-17T07:04:46.326Z,10.85
2022-10-17T07:09:48.070Z,15.40
2022-10-17T07:14:51.880Z,19.65
2022-10-17T07:19:54.195Z,10.95
2022-10-17T07:24:56.049Z,11.88
2022-10-17T07:30:16.880Z,14.65
2022-10-17T07:35:42.301Z,27.40
2022-10-17T07:40:45.286Z,19.33
2022-10-17T07:45:46.932Z,28.20
2022-10-17T07:50:49.113Z,27.70
2022-10-17T07:55:51.467Z,27.83
2022-10-17T08:00:53.287Z,26.83
2022-10-17T08:05:58.282Z,23.67
2022-10-17T08:11:05.788Z,18.30
2022-10-17T08:16:10.227Z,20.63
2022-10-17T08:21:13.530Z,13.63
2022-10-17T08:26:17.370Z,22.20
2022-10-17T08:31:20.198Z,13.43
2022-10-17T08:36:22.015Z,13.50
2022-10-17T08:41:53.946Z,14.52
2022-10-17T08:47:00.128Z,13.27
2022-10-17T08:52:14.983Z,11.85
2022-10-17T08:57:17.722Z,9.90
2022-10-17T09:02:37.862Z,13.88
2022-10-17T09:07:57.984Z,10.45
2022-10-17T09:13:18.484Z,14.60
2022-10-17T09:18:31.830Z,12.73
2022-10-17T09:23:45.914Z,12.00
2022-10-17T09:28:54.341Z,13.55
2022-10-17T09:33:57.906Z,18.67
2022-10-17T09:39:05.821Z,18.02
2022-10-17T09:44:21.903Z,19.42
2022-10-17T09:49:32.618Z,22.17
2022-10-17T09:54:48.131Z,19.83
2022-10-17T09:59:59.409Z,18.20
2022-10-17T10:05:17.332Z,18.13
2022-10-17T10:10:28.123Z,17.20
2022-10-17T10:15:37.821Z,16.95
2022-10-17T10:20:40.697Z,15.05
2022-10-17T10:26:00.227Z,17.70
2022-10-17T10:31:09.949Z,15.00
2022-10-17T10:36:11.754Z,15.57
2022-10-17T10:41:13.406Z,13.32
2022-10-17T10:46:27.920Z,15.55
2022-10-17T10:51:37.512Z,15.73
2022-10-17T10:56:48.697Z,16.88
2022-10-17T11:01:52.987Z,17.02
2022-10-17T11:07:01.258Z,16.83
2022-10-17T11:12:12.057Z,20.33
2022-10-17T11:17:23.253Z,17.08
2022-10-17T11:23:00.092Z,16.25
2022-10-17T11:28:05.294Z,16.58
2022-10-17T11:33:12.396Z,15.15
2022-10-17T11:38:25.406Z,16.80
2022-10-17T11:43:38.796Z,16.95
2022-10-17T11:48:49.374Z,21.40
2022-10-17T11:53:57.500Z,19.05
2022-10-17T11:59:31.545Z,18.38
2022-10-17T12:04:39.488Z,17.17
2022-10-17T12:10:19.476Z,17.23
2022-10-17T12:15:23.468Z,17.02
2022-10-17T12:20:28.077Z,16.52
2022-10-17T12:25:33.789Z,17.85
2022-10-17T12:30:35.563Z,15.15
2022-10-17T12:35:38.851Z,14.35
2022-10-17T12:40:48.433Z,14.85
2022-10-17T12:45:58.434Z,16.40
2022-10-17T12:51:34.133Z,16.15
2022-10-17T12:56:45.726Z,19.80
2022-10-17T13:01:52.011Z,16.23
2022-10-17T13:06:58.724Z,19.40
2022-10-17T13:12:04.650Z,15.40
2022-10-17T13:17:07.835Z,16.48
2022-10-17T13:22:19.044Z,16.63
2022-10-17T13:27:35.012Z,17.55
2022-10-17T13:32:39.801Z,18.98
2022-10-17T13:37:43.918Z,18.17
2022-10-17T13:42:46.351Z,17.23
2022-10-17T13:47:48.427Z,17.15
2022-10-17T13:53:06.665Z,17.63
2022-10-17T13:58:18.329Z,20.45
2022-10-17T14:03:21.520Z,21.85
2022-10-17T14:08:23.982Z,19.70
2022-10-17T14:13:29.056Z,21.58
2022-10-17T14:18:36.377Z,20.45
2022-10-17T14:23:41.964Z,21.85
2022-10-17T14:28:46.804Z,22.55
2022-10-17T14:33:51.106Z,26.77
2022-10-17T14:38:53.151Z,24.00
2022-10-17T14:43:58.168Z,22.35
2022-10-17T14:49:07.306Z,31.42
2022-10-17T14:54:26.025Z,25.02
2022-10-17T14:59:52.884Z,25.17
2022-10-17T15:04:49.408Z,30.85
2022-10-17T15:09:52.802Z,27.15
2022-10-17T15:14:54.499Z,25.65
2022-10-17T15:19:57.366Z,25.08
2022-10-17T15:24:59.020Z,27.80
2022-10-17T15:30:00.784Z,26.15
2022-10-17T15:35:02.445Z,25.05
2022-10-17T15:40:04.442Z,28.88
2022-10-17T15:50:15.233Z,31.60
2022-10-17T15:55:17.891Z,27.02
2022-10-17T16:00:24.343Z,27.10
2022-10-17T16:05:26.299Z,26.48
2022-10-17T16:10:28.272Z,34.28
2022-10-17T16:15:29.923Z,30.58
2022-10-17T16:20:32.097Z,29.58
2022-10-17T16:25:34.253Z,29.23
2022-10-17T16:30:42.640Z,31.23
2022-10-17T16:35:45.688Z,29.27
2022-10-17T16:40:47.338Z,26.88
2022-10-17T16:45:48.983Z,31.33
2022-10-17T16:50:50.634Z,30.48
2022-10-17T16:56:03.168Z,35.83
2022-10-17T17:01:07.464Z,33.17
2022-10-17T17:06:13.789Z,33.95
2022-10-17T17:11:17.172Z,30.48
2022-10-17T17:16:23.855Z,35.22
2022-10-17T17:21:27.022Z,37.28
2022-10-17T17:26:31.172Z,30.88
2022-10-17T17:31:34.437Z,31.50
2022-10-17T17:36:38.509Z,31.30
2022-10-17T17:41:41.399Z,34.88
2022-10-17T17:46:43.693Z,29.90
2022-10-17T17:51:46.618Z,37.58
2022-10-17T17:56:48.365Z,41.38
2022-10-17T18:01:50.241Z,37.05
2022-10-17T18:06:51.935Z,35.72
2022-10-17T18:11:54.033Z,36.13
2022-10-17T18:16:55.775Z,39.05
2022-10-17T18:21:57.475Z,36.80
2022-10-17T18:26:59.984Z,34.40
2022-10-17T18:32:01.738Z,33.47
2022-10-17T18:37:03.885Z,34.70
2022-10-17T18:42:05.534Z,38.88
2022-10-17T18:47:07.203Z,37.17
2022-10-17T18:52:08.973Z,41.17
2022-10-17T18:57:10.684Z,35.58
2022-10-17T19:02:15.264Z,37.08
2022-10-17T19:07:18.936Z,39.35
2022-10-17T19:12:20.972Z,37.50
2022-10-17T19:17:22.857Z,37.47
2022-10-17T19:22:24.564Z,44.70
2022-10-17T19:27:26.212Z,44.42
2022-10-17T19:32:29.356Z,42.75
2022-10-17T19:37:32.684Z,44.15
2022-10-17T19:42:35.175Z,41.97
2022-10-17T19:47:36.923Z,42.38
2022-10-17T19:52:38.574Z,48.35
2022-10-17T19:57:40.365Z,46.88
2022-10-17T20:02:42.033Z,38.30
2022-10-17T20:07:43.672Z,40.40
2022-10-17T20:12:45.356Z,37.55
2022-10-17T20:17:47.067Z,40.67
2022-10-17T20:22:48.715Z,40.25
2022-10-17T20:27:50.351Z,40.20
2022-10-17T20:32:55.245Z,43.42
2022-10-17T20:37:57.299Z,37.17
2022-10-17T20:42:58.955Z,37.70
2022-10-17T20:48:00.622Z,37.55
2022-10-17T20:53:24.805Z,33.28
2022-10-17T20:58:23.964Z,39.83
2022-10-17T21:03:26.631Z,40.20
2022-10-17T21:08:28.445Z,41.67
2022-10-17T21:13:30.092Z,36.47
2022-10-17T21:18:31.752Z,38.90
2022-10-17T21:23:33.390Z,37.83
2022-10-17T21:28:35.994Z,36.75
2022-10-17T21:33:37.768Z,42.28
2022-10-17T21:38:40.467Z,38.47
2022-10-17T21:43:43.220Z,46.65
2022-10-17T21:48:45.927Z,35.33
2022-10-17T21:53:47.775Z,37.50
2022-10-17T21:58:51.187Z,41.50
2022-10-17T22:03:55.279Z,40.97
2022-10-17T22:08:57.180Z,43.97
2022-10-17T22:14:07.897Z,38.22
2022-10-17T22:19:11.818Z,41.63
2022-10-17T22:24:15.880Z,41.63
2022-10-17T22:29:18.046Z,46.08
2022-10-17T22:34:19.852Z,48.65
2022-10-17T22:39:21.554Z,43.13
2022-10-17T22:44:23.249Z,40.83
2022-10-17T22:49:24.905Z,38.83
2022-10-17T22:54:26.579Z,39.53
2022-10-17T22:59:28.236Z,37.60
2022-10-17T23:04:29.902Z,40.83
2022-10-17T23:09:31.559Z,43.92
2022-10-17T23:14:33.525Z,42.28
2022-10-17T23:19:35.259Z,40.95
2022-10-17T23:24:36.903Z,40.85
2022-10-17T23:29:38.559Z,40.75
2022-10-17T23:34:40.355Z,44.72
2022-10-17T23:39:42.016Z,38.17
2022-10-17T23:44:43.662Z,39.60
2022-10-17T23:49:45.515Z,38.15
2022-10-17T23:54:47.184Z,37.95
2022-10-17T23:59:48.943Z,35.17
